Wetterdaten: aktuell Dienstag, 27.07.2021 09:45
Datum Zeit Temp 2m Wasser SB Wasser NSB Temp 2m ob Temp 10cm Regen Wind mittel Richtung Richtung Taupunkt Windben
27.07.2021 09:45 16,7 C 24,6 C 23,5 C 17,9 C 16,9 C 0,0 l/m 2,1 km/h NO 45 15,4 C 0,0 km/h
27.07.2021 09:40 16,7 C 24,6 C 23,5 C 18,0 C 16,9 C 0,0 l/m 2,4 km/h SO 135 15,4 C 12,2 km/h
27.07.2021 09:35 16,8 C 24,6 C 23,4 C 18,1 C 17,0 C 0,0 l/m 2,4 km/h N-NO 22 15,5 C 4,2 km/h
27.07.2021 09:30 17,1 C 24,6 C 23,2 C 18,1 C 17,1 C 0,0 l/m 2,1 km/h N-NO 22 15,8 C 0,0 km/h
27.07.2021 09:25 17,4 C 24,6 C 23,2 C 18,3 C 17,3 C 0,0 l/m 1,9 km/h SW 225 16,3 C 5,5 km/h
27.07.2021 09:20 17,5 C 24,7 C 23,3 C 18,2 C 17,2 C 0,0 l/m 1,3 km/h W-NW 292 16,4 C 1,6 km/h
27.07.2021 09:15 17,4 C 24,7 C 22,9 C 17,8 C 17,0 C 0,0 l/m 1,3 km/h SO 135 16,3 C 0,0 km/h
27.07.2021 09:10 17,3 C 24,6 C 22,6 C 17,6 C 16,9 C 0,0 l/m 1,4 km/h NW 315 16,2 C 3,9 km/h
27.07.2021 09:05 17,0 C 24,7 C 23,3 C 17,2 C 16,5 C 0,0 l/m 0,8 km/h N-NW 337 15,9 C 0,0 km/h
27.07.2021 09:00 16,7 C 24,6 C 23,5 C 16,9 C 16,3 C 0,0 l/m 0,3 km/h O-NO 67 15,6 C 1,8 km/h
27.07.2021 08:55 15,9 C 24,5 C 23,4 C 16,4 C 16,1 C 0,0 l/m 1,1 km/h NO 45 14,8 C 3,9 km/h
27.07.2021 08:50 15,7 C 24,5 C 23,3 C 16,3 C 16,1 C 0,0 l/m 1,0 km/h SO 135 14,6 C 0,0 km/h
27.07.2021 08:45 15,8 C 24,5 C 23,3 C 16,3 C 16,0 C 0,0 l/m 0,2 km/h NO 45 14,7 C 2,7 km/h
27.07.2021 08:40 15,7 C 24,5 C 23,4 C 16,2 C 16,0 C 0,0 l/m 0,0 km/h S 180 14,6 C 0,0 km/h
27.07.2021 08:35 15,7 C 24,5 C 23,3 C 16,0 C 16,0 C 0,0 l/m 0,0 km/h SO 135 14,6 C 0,0 km/h
27.07.2021 08:30 15,6 C 24,5 C 23,3 C 15,9 C 15,8 C 0,0 l/m 0,0 km/h O-NO 67 14,5 C 0,0 km/h
27.07.2021 08:25 15,4 C 24,5 C 23,4 C 15,7 C 15,6 C 0,0 l/m 0,0 km/h O-SO 112 14,3 C 0,0 km/h
27.07.2021 08:20 15,3 C 24,5 C 23,4 C 15,5 C 15,4 C 0,0 l/m 0,0 km/h S 180 14,2 C 0,0 km/h
27.07.2021 08:15 15,1 C 24,5 C 23,4 C 15,4 C 15,3 C 0,0 l/m 0,5 km/h S-SO 157 14,0 C 0,0 km/h
27.07.2021 08:10 15,0 C 24,5 C 23,3 C 15,3 C 15,1 C 0,0 l/m 0,5 km/h SW 225 13,9 C 0,0 km/h
27.07.2021 08:05 14,8 C 24,4 C 23,3 C 15,1 C 15,0 C 0,0 l/m 1,1 km/h S 180 13,7 C 1,6 km/h
27.07.2021 08:00 14,8 C 24,5 C 23,3 C 15,0 C 14,9 C 0,0 l/m 1,6 km/h S-SW 202 13,7 C 0,0 km/h
27.07.2021 07:55 14,7 C 24,5 C 23,3 C 14,9 C 14,7 C 0,0 l/m 1,1 km/h S-SO 157 13,6 C 3,2 km/h
27.07.2021 07:50 14,6 C 24,5 C 23,3 C 14,8 C 14,6 C 0,0 l/m 0,5 km/h S-SO 157 13,5 C 2,1 km/h
27.07.2021 07:45 14,5 C 24,5 C 23,3 C 14,8 C 14,6 C 0,0 l/m 0,5 km/h S-SW 202 13,2 C 0,0 km/h
27.07.2021 07:40 14,5 C 24,5 C 23,3 C 14,7 C 14,6 C 0,0 l/m 0,8 km/h S-SO 157 13,2 C 0,0 km/h
_ Min-Zeit 05:40 08:05 09:10 06:30 06:30 - 11:00 - - 01:40 10:00
Minimum _ 14,3 C 24,4 C 22,6 C 14,4 C 14,2 C - 0,0 km/h - - 12,8 C 0,0 km/h
_ Max-Zeit 16:30 18:40 16:10 16:25 16:30 00:20 16:20 - - 10:10 15:30
Maximum _ 24,5 C 26,0 C 25,2 C 27,9 C 25,8 C 5,5 l/m 5,6 km/h
NO
- - 21,7 C 15,8 km/h
N-NW
Durchschnitt _ 19,5 C 25,2 C 24,2 C 20,2 C 19,6 C #14,4 l/m 1,4 km/h NO - 15,8 C 2,0 km/h